Time;durP1;ratioP1;P1;durP2;ratioP2;P2;SDS_P1;SDS_P2;PMS_P1;PMS_P2;Temp;Humidity;BMP_temperature;BMP_pressure;BME280_temperature;BME280_humidity;BME280_pressure;Samples;Min_cycle;Max_cycle;Signal;HPM_P1;HPM_P2
2022/03/17 07:58:50;;;;;;;133.32;91.35;;;;;;;7.66;82.24;102640.00;5260134;28;20399;-73
2022/03/17 08:01:24;;;;;;;9.15;3.30;;;;;;;7.62;81.85;102644.31;5242894;28;20413;-74
2022/03/17 08:03:58;;;;;;;16.10;2.75;;;;;;;7.69;81.68;102650.59;5238693;28;20030;-74
2022/03/17 08:06:30;;;;;;;7.03;2.33;;;;;;;7.73;81.30;102653.75;5238085;28;20037;-74
2022/03/17 08:09:02;;;;;;;9.20;2.55;;;;;;;7.73;80.36;102651.00;5238838;28;20285;-73
2022/03/17 08:11:34;;;;;;;8.82;3.22;;;;;;;7.80;80.28;102671.13;5222282;28;20027;-74
2022/03/17 08:14:05;;;;;;;7.38;2.10;;;;;;;7.79;79.86;102669.41;5228580;28;20040;-74
2022/03/17 08:16:37;;;;;;;11.13;2.55;;;;;;;7.79;78.92;102670.25;5259445;28;20025;-74
2022/03/17 08:19:08;;;;;;;9.75;2.38;;;;;;;7.86;78.73;102674.91;5245328;28;20014;-74
2022/03/17 08:21:40;;;;;;;9.68;2.50;;;;;;;7.96;78.75;102684.34;5224698;28;20117;-74
2022/03/17 08:24:12;;;;;;;5.32;2.83;;;;;;;8.01;77.73;102687.28;5218744;28;20520;-74
2022/03/17 08:26:43;;;;;;;8.35;3.42;;;;;;;8.12;77.43;102704.19;5238237;28;20148;-74
2022/03/17 08:29:14;;;;;;;12.50;3.45;;;;;;;8.11;74.79;102702.50;5228495;28;20026;-74
2022/03/17 08:31:45;;;;;;;8.90;2.20;;;;;;;8.02;73.96;102711.06;5243270;28;20033;-74
2022/03/17 08:34:17;;;;;;;7.13;1.80;;;;;;;8.07;71.76;102724.19;5249398;28;20037;-75
2022/03/17 08:36:50;;;;;;;6.13;2.17;;;;;;;8.18;72.35;102714.31;5237761;28;20030;-72
2022/03/17 08:39:24;;;;;;;8.00;2.22;;;;;;;8.20;71.49;102726.81;5236117;28;20025;-72
2022/03/17 08:41:56;;;;;;;7.32;2.00;;;;;;;8.38;72.32;102736.22;5228838;28;20018;-80
2022/03/17 08:44:27;;;;;;;8.85;2.25;;;;;;;8.58;72.27;102736.88;5238950;28;20020;-76
2022/03/17 08:49:48;;;;;;;7.00;2.15;;;;;;;8.56;68.57;102758.38;5256961;28;20025;-74
2022/03/17 08:52:20;;;;;;;9.02;2.55;;;;;;;8.59;69.19;102757.06;5223595;28;20025;-74
2022/03/17 08:54:51;;;;;;;8.20;2.53;;;;;;;8.67;68.40;102760.41;5237138;28;20032;-74
2022/03/17 08:57:25;;;;;;;6.00;2.20;;;;;;;8.67;67.93;102763.16;5229375;28;20046;-74
2022/03/17 08:59:58;;;;;;;9.27;2.63;;;;;;;8.51;67.52;102758.22;5217197;28;20362;-74
2022/03/17 09:02:29;;;;;;;6.50;2.08;;;;;;;8.62;67.62;102765.78;5218901;28;20026;-74
2022/03/17 09:05:01;;;;;;;7.70;1.80;;;;;;;8.58;67.58;102759.00;5242476;28;20460;-74
2022/03/17 09:07:32;;;;;;;9.82;2.80;;;;;;;8.66;67.54;102772.53;5233413;28;20109;-78
2022/03/17 09:10:05;;;;;;;5.90;2.17;;;;;;;8.60;67.45;102779.00;5213382;28;20025;-73
2022/03/17 09:12:38;;;;;;;11.00;2.58;;;;;;;8.57;67.25;102782.22;5222011;28;20041;-74
2022/03/17 09:15:11;;;;;;;13.88;2.30;;;;;;;8.57;67.77;102779.44;5210087;28;20397;-75
2022/03/17 09:17:42;;;;;;;9.43;2.45;;;;;;;8.55;66.88;102791.81;5202796;28;20089;-75
2022/03/17 09:20:15;;;;;;;8.75;2.20;;;;;;;8.52;66.81;102793.13;5212633;28;20025;-74
2022/03/17 09:22:49;;;;;;;11.80;2.47;;;;;;;8.56;67.18;102796.25;5234312;28;20025;-73
2022/03/17 09:25:23;;;;;;;17.50;3.55;;;;;;;8.57;67.37;102807.09;5225933;28;20041;-76
2022/03/17 09:27:55;;;;;;;13.47;6.27;;;;;;;8.65;67.23;102804.03;5206262;28;20030;-78
2022/03/17 09:30:27;;;;;;;8.75;3.72;;;;;;;8.69;66.90;102812.72;5220806;28;20303;-73
2022/03/17 09:33:03;;;;;;;14.38;3.53;;;;;;;8.75;66.29;102806.28;5203231;28;20386;-75
2022/03/17 09:35:34;;;;;;;10.20;2.30;;;;;;;8.71;66.44;102810.56;5209159;28;20029;-78
2022/03/17 09:38:07;;;;;;;8.77;2.92;;;;;;;8.54;66.06;102818.63;5212861;28;20037;-77
2022/03/17 09:40:38;;;;;;;6.22;2.33;;;;;;;8.62;66.24;102826.63;5220516;28;20034;-77
2022/03/17 09:43:18;;;;;;;7.03;2.30;;;;;;;8.62;66.36;102837.69;5203081;28;20026;-77
2022/03/17 09:45:53;;;;;;;7.97;2.33;;;;;;;8.53;66.29;102833.50;5215126;28;20029;-76
2022/03/17 09:48:26;;;;;;;13.10;2.25;;;;;;;8.67;65.84;102835.09;5231493;28;20022;-78
2022/03/17 09:50:59;;;;;;;6.85;2.20;;;;;;;8.71;66.22;102836.31;5243492;28;20084;-77
2022/03/17 09:53:31;;;;;;;9.80;2.65;;;;;;;8.71;66.37;102841.84;5233433;28;20026;-78
2022/03/17 09:56:03;;;;;;;11.32;2.72;;;;;;;8.83;66.32;102849.41;5227872;28;20025;-78
2022/03/17 09:58:34;;;;;;;11.43;2.45;;;;;;;8.83;66.82;102841.09;5224596;28;20053;-80
2022/03/17 10:01:07;;;;;;;9.57;2.17;;;;;;;9.05;68.33;102855.31;5223174;28;20026;-82
2022/03/17 10:03:39;;;;;;;7.93;2.15;;;;;;;9.12;68.20;102868.00;5224823;28;20017;-86
2022/03/17 10:06:10;;;;;;;5.13;2.05;;;;;;;8.94;66.09;102876.31;5226064;28;20322;-86
2022/03/17 10:08:48;;;;;;;6.05;2.28;;;;;;;8.90;65.22;102883.38;5221710;28;20025;-79
2022/03/17 10:11:27;;;;;;;12.10;2.35;;;;;;;8.96;65.14;102884.38;5211971;28;20033;-79
2022/03/17 10:13:59;;;;;;;19.25;13.30;;;;;;;8.84;64.48;102884.28;5236993;28;20029;-79
2022/03/17 10:16:37;;;;;;;9.77;2.30;;;;;;;8.74;65.38;102898.63;5224675;28;20033;-79
2022/03/17 10:19:09;;;;;;;11.63;2.25;;;;;;;8.84;65.08;102892.59;5222812;28;20022;-79
2022/03/17 10:21:42;;;;;;;8.23;2.67;;;;;;;8.92;64.98;102893.16;5220583;28;20053;-80
2022/03/17 10:24:16;;;;;;;7.90;2.85;;;;;;;9.00;65.08;102904.97;5222611;28;20050;-79
2022/03/17 10:26:52;;;;;;;11.85;2.40;;;;;;;8.96;65.52;102915.66;5221628;28;20025;-79
2022/03/17 10:29:26;;;;;;;12.75;2.97;;;;;;;9.03;65.10;102908.16;5222136;28;20033;-80
2022/03/17 10:32:04;;;;;;;12.15;2.65;;;;;;;9.01;64.91;102918.59;5243295;28;20032;-80
2022/03/17 10:34:51;;;;;;;13.18;3.70;;;;;;;9.01;64.96;102917.75;5242593;28;20029;-79
2022/03/17 10:37:24;;;;;;;11.98;2.30;;;;;;;9.02;64.97;102931.34;5242892;28;20056;-80
2022/03/17 10:39:57;;;;;;;8.95;2.50;;;;;;;8.93;65.57;102930.81;5218814;28;20034;-79
2022/03/17 10:42:29;;;;;;;6.65;2.20;;;;;;;8.89;64.60;102935.09;5206209;28;20425;-80
2022/03/17 10:45:05;;;;;;;7.43;2.13;;;;;;;9.02;64.90;102933.28;5221651;28;20030;-79
2022/03/17 10:47:42;;;;;;;;;;;;;;;9.11;65.36;102941.06;5232478;28;20072;-81
2022/03/17 10:50:17;;;;;;;9.57;1.92;;;;;;;9.14;65.40;102935.06;5242181;28;19913;-80
2022/03/17 10:53:00;;;;;;;6.53;2.15;;;;;;;9.22;67.33;102946.91;5205634;28;20043;-75
2022/03/17 10:55:34;;;;;;;8.05;2.67;;;;;;;9.20;66.74;102954.59;5200554;28;20161;-74
2022/03/17 10:58:19;;;;;;;9.68;2.40;;;;;;;9.13;65.72;102958.28;5203503;28;20148;-78
2022/03/17 11:00:52;;;;;;;6.32;2.53;;;;;;;9.05;65.96;102975.19;5215435;28;20041;-78
2022/03/17 11:03:24;;;;;;;7.38;2.15;;;;;;;9.06;65.72;102964.97;5218418;28;20022;-78
2022/03/17 11:05:56;;;;;;;10.00;2.47;;;;;;;9.16;66.32;102976.38;5216861;28;20109;-78
2022/03/17 11:08:27;;;;;;;8.55;2.65;;;;;;;9.02;65.22;102980.31;5202268;28;20046;-75
2022/03/17 11:10:59;;;;;;;8.10;2.30;;;;;;;9.00;63.52;102980.56;5211534;28;20096;-81
2022/03/17 11:13:33;;;;;;;6.22;2.25;;;;;;;8.85;62.55;102991.13;5219654;28;20034;-81
2022/03/17 11:16:09;;;;;;;4.93;2.15;;;;;;;8.94;62.62;102981.47;5220771;28;20057;-79
2022/03/17 11:18:43;;;;;;;6.72;2.00;;;;;;;9.05;62.35;102986.28;5213246;28;20469;-78
2022/03/17 11:21:19;;;;;;;7.93;2.58;;;;;;;9.07;62.08;102999.88;5224838;28;20526;-78
2022/03/17 11:24:04;;;;;;;4.18;1.77;;;;;;;9.19;61.18;102997.22;5220635;28;20104;-79
2022/03/17 11:26:39;;;;;;;4.80;2.10;;;;;;;9.26;61.01;103000.78;5220257;28;20033;-79
2022/03/17 11:29:13;;;;;;;5.57;3.05;;;;;;;9.22;60.62;102997.59;5221758;28;20029;-78
2022/03/17 11:31:52;;;;;;;6.97;2.33;;;;;;;9.35;59.94;103004.91;5219521;28;20030;-78
2022/03/17 11:34:46;;;;;;;7.00;2.03;;;;;;;9.28;60.54;103006.91;5221291;28;20037;-76
2022/03/17 11:37:26;;;;;;;9.55;2.40;;;;;;;9.19;61.15;103017.44;5216699;28;20022;-76
2022/03/17 11:40:03;;;;;;;5.47;2.40;;;;;;;9.17;60.21;103011.28;5223298;28;20421;-76
2022/03/17 11:42:47;;;;;;;5.68;2.63;;;;;;;9.28;60.35;103017.97;5216603;28;20030;-76
2022/03/17 11:45:19;;;;;;;5.30;2.67;;;;;;;9.45;59.99;103023.78;5220307;28;20032;-76
2022/03/17 11:47:58;;;;;;;7.25;2.67;;;;;;;9.43;59.79;103021.22;5219888;28;20030;-77
2022/03/17 11:50:33;;;;;;;7.28;3.05;;;;;;;9.41;60.47;103028.94;5219215;28;20022;-79
2022/03/17 11:53:07;;;;;;;8.32;2.60;;;;;;;9.38;60.26;103029.38;5213493;28;20098;-78
2022/03/17 11:55:45;;;;;;;10.15;3.38;;;;;;;9.43;59.71;103032.31;5231041;28;20037;-77
2022/03/17 11:58:16;;;;;;;7.78;3.30;;;;;;;9.50;60.24;103026.72;5228954;28;20048;-77
2022/03/17 12:01:05;;;;;;;7.35;2.88;;;;;;;9.54;60.22;103039.03;5204628;28;20030;-77
2022/03/17 12:03:45;;;;;;;7.15;3.58;;;;;;;9.34;60.70;103033.69;5200225;28;20026;-78
2022/03/17 12:06:34;;;;;;;8.57;4.88;;;;;;;9.45;61.70;103037.63;5216701;28;20027;-76
2022/03/17 12:09:08;;;;;;;12.27;10.63;;;;;;;9.53;61.76;103043.69;5220522;28;20072;-76
2022/03/17 12:11:47;;;;;;;22.05;16.10;;;;;;;9.55;61.50;103043.50;5210225;28;20390;-78
2022/03/17 12:14:22;;;;;;;9.40;3.97;;;;;;;9.58;61.39;103051.34;5240707;28;20022;-77
2022/03/17 12:16:56;;;;;;;8.73;3.78;;;;;;;9.70;60.42;103048.66;5221133;28;20026;-78
2022/03/17 12:19:35;;;;;;;11.80;4.03;;;;;;;9.77;60.81;103050.28;5220261;28;20038;-78
2022/03/17 12:22:18;;;;;;;7.53;4.82;;;;;;;9.91;60.61;103050.97;5223126;28;20042;-76
2022/03/17 12:24:58;;;;;;;6.15;3.83;;;;;;;10.04;60.51;103049.94;5222969;28;20109;-77
2022/03/17 12:27:31;;;;;;;8.20;3.60;;;;;;;10.15;60.61;103053.84;5212621;28;20034;-76
2022/03/17 12:30:06;;;;;;;7.38;4.07;;;;;;;10.21;59.99;103055.72;5232595;28;20026;-76
2022/03/17 12:32:45;;;;;;;8.15;4.22;;;;;;;10.14;59.75;103055.78;5241227;28;20037;-77
2022/03/17 12:35:20;;;;;;;8.15;4.72;;;;;;;10.18;60.43;103050.66;5240975;28;20364;-77
2022/03/17 12:37:59;;;;;;;7.60;4.37;;;;;;;10.24;60.46;103050.53;5226042;28;20041;-76
2022/03/17 12:40:44;;;;;;;8.68;4.80;;;;;;;9.91;60.75;103055.66;5213571;28;20041;-77
2022/03/17 12:43:18;;;;;;;8.98;4.72;;;;;;;9.90;62.12;103053.97;5219714;28;20388;-84
2022/03/17 12:45:56;;;;;;;11.23;4.85;;;;;;;10.11;62.29;103055.44;5212387;28;20029;-74
2022/03/17 12:48:28;;;;;;;8.85;4.38;;;;;;;10.11;62.00;103050.72;5237531;28;20061;-74
2022/03/17 12:51:05;;;;;;;5.60;4.43;;;;;;;10.15;60.98;103051.09;5217562;28;20105;-78
2022/03/17 12:53:36;;;;;;;6.53;5.72;;;;;;;10.19;61.21;103044.00;5230720;28;20022;-76
2022/03/17 12:56:10;;;;;;;7.30;4.30;;;;;;;10.08;61.13;103044.81;5225366;28;20472;-79
2022/03/17 12:58:41;;;;;;;8.05;4.43;;;;;;;10.17;61.50;103040.63;5224961;28;20050;-79
2022/03/17 13:01:14;;;;;;;8.23;4.32;;;;;;;10.40;60.66;103049.06;5214840;28;20026;-77
2022/03/17 13:03:48;;;;;;;5.63;3.80;;;;;;;10.27;59.94;103048.38;5217800;28;20546;-77
2022/03/17 13:09:11;;;;;;;7.95;4.07;;;;;;;10.13;60.08;103042.19;5208451;28;20066;-77
2022/03/17 13:14:33;;;;;;;8.85;4.18;;;;;;;10.38;58.38;103053.16;5224402;28;20042;-78
2022/03/17 13:17:05;;;;;;;9.07;4.50;;;;;;;10.50;57.68;103040.19;5222159;28;20022;-78
2022/03/17 13:19:46;;;;;;;7.25;3.47;;;;;;;10.60;56.96;103045.16;5225388;28;20045;-78
2022/03/17 13:22:23;;;;;;;4.30;3.05;;;;;;;10.68;56.96;103047.59;5243743;28;20034;-77
2022/03/17 13:25:07;;;;;;;5.22;3.10;;;;;;;10.63;54.53;103042.78;5226844;28;20377;-80
2022/03/17 13:27:53;;;;;;;6.85;3.38;;;;;;;10.59;54.11;103046.25;5212381;28;20026;-80
2022/03/17 13:30:28;;;;;;;8.88;4.47;;;;;;;10.52;54.71;103051.06;5202583;28;20058;-77
2022/03/17 13:33:12;;;;;;;6.03;2.90;;;;;;;10.71;55.00;103047.16;5203154;28;20428;-77
2022/03/17 13:35:46;;;;;;;4.88;2.58;;;;;;;10.77;54.20;103042.56;5209544;28;20050;-76
2022/03/17 13:38:20;;;;;;;9.45;3.10;;;;;;;10.92;53.23;103047.69;5227300;28;20097;-78
2022/03/17 13:40:56;;;;;;;5.85;2.95;;;;;;;11.03;52.27;103050.47;5215164;28;20042;-78
2022/03/17 13:43:32;;;;;;;6.78;2.58;;;;;;;11.03;51.57;103046.84;5222748;28;20030;-78
2022/03/17 13:46:17;;;;;;;7.85;3.13;;;;;;;10.99;50.92;103052.03;5223119;28;20029;-79
2022/03/17 13:48:50;;;;;;;3.75;2.75;;;;;;;11.03;51.24;103057.94;5223402;28;20025;-78
2022/03/17 13:51:28;;;;;;;3.75;2.65;;;;;;;11.05;51.30;103056.63;5219169;28;20116;-75
2022/03/17 13:54:03;;;;;;;5.35;2.72;;;;;;;11.04;50.71;103048.53;5217335;28;20036;-78
2022/03/17 13:56:35;;;;;;;6.88;2.78;;;;;;;11.04;49.60;103054.94;5240500;28;20495;-78
2022/03/17 13:59:07;;;;;;;8.23;4.65;;;;;;;11.07;48.86;103048.06;5210363;28;20026;-79
2022/03/17 14:01:38;;;;;;;4.45;2.50;;;;;;;11.19;48.00;103056.41;5203341;28;20076;-78
2022/03/17 14:04:10;;;;;;;4.35;2.60;;;;;;;11.19;47.85;103060.00;5216583;28;20080;-78
2022/03/17 14:06:41;;;;;;;3.65;2.88;;;;;;;11.44;54.32;103057.00;5211227;28;20049;-75
2022/03/17 14:09:13;;;;;;;6.47;3.13;;;;;;;11.40;48.27;103064.16;5210933;28;20026;-81
2022/03/17 14:11:44;;;;;;;3.83;2.60;;;;;;;11.48;48.30;103071.28;5225448;28;20036;-82
2022/03/17 14:14:15;;;;;;;6.57;2.97;;;;;;;11.50;49.18;103063.53;5207557;28;20164;-76
2022/03/17 14:16:47;;;;;;;4.47;3.10;;;;;;;11.54;51.97;103067.53;5209894;28;20525;-79
2022/03/17 14:19:19;;;;;;;5.43;2.50;;;;;;;11.53;50.88;103068.63;5221912;28;20021;-79
2022/03/17 14:24:41;;;;;;;6.20;3.13;;;;;;;11.58;49.56;103071.53;5212603;28;20045;-78
2022/03/17 14:27:13;;;;;;;28.52;15.32;;;;;;;11.58;49.51;103067.88;5220517;28;20401;-81
2022/03/17 14:29:44;;;;;;;5.40;2.63;;;;;;;11.50;49.83;103069.09;5235036;28;20030;-79
2022/03/17 14:32:15;;;;;;;4.85;3.05;;;;;;;11.58;51.27;103077.09;5222581;28;20057;-80
2022/03/17 14:34:47;;;;;;;5.10;2.47;;;;;;;11.56;51.08;103078.41;5222303;28;20018;-76
2022/03/17 14:37:18;;;;;;;4.20;2.70;;;;;;;11.55;49.22;103077.53;5222456;28;20033;-79
2022/03/17 14:39:50;;;;;;;6.32;2.92;;;;;;;11.53;48.43;103077.78;5221921;28;20104;-78
2022/03/17 14:42:21;;;;;;;6.70;1.92;;;;;;;11.53;46.12;103088.06;5216714;28;20029;-79
2022/03/17 14:44:53;;;;;;;8.30;2.65;;;;;;;11.56;47.45;103089.53;5209929;28;20029;-77
2022/03/17 14:47:24;;;;;;;6.78;2.65;;;;;;;11.63;48.77;103088.31;5229313;28;20030;-79
2022/03/17 14:49:56;;;;;;;6.88;2.60;;;;;;;11.68;49.80;103105.13;5214836;28;20084;-76
2022/03/17 14:52:27;;;;;;;6.28;2.50;;;;;;;11.75;49.06;103104.97;5211697;28;20124;-76
2022/03/17 14:54:59;;;;;;;4.85;2.00;;;;;;;11.74;49.76;103104.13;5210081;28;20026;-76
2022/03/17 14:57:30;;;;;;;5.70;2.58;;;;;;;11.70;48.70;103114.03;5221926;28;20139;-76
2022/03/17 15:00:03;;;;;;;5.90;1.90;;;;;;;11.77;47.20;103104.75;5212621;28;20022;-79
2022/03/17 15:02:34;;;;;;;4.55;2.50;;;;;;;11.84;49.82;103108.25;5230607;28;20068;-73
2022/03/17 15:05:05;;;;;;;4.35;2.15;;;;;;;11.84;46.97;103105.47;5220072;28;20064;-73
2022/03/17 15:07:37;;;;;;;4.18;1.90;;;;;;;11.91;46.59;103109.84;5203876;28;20030;-74
2022/03/17 15:10:09;;;;;;;4.43;2.08;;;;;;;11.92;45.23;103105.13;5217057;28;20018;-80
2022/03/17 15:12:41;;;;;;;5.43;1.70;;;;;;;11.95;47.25;103107.41;5214867;28;20042;-80
2022/03/17 15:15:13;;;;;;;5.90;2.42;;;;;;;11.69;45.58;103111.50;5217542;28;20021;-79
2022/03/17 15:17:50;;;;;;;5.25;2.10;;;;;;;11.83;48.96;103128.78;5220194;28;20064;-80
2022/03/17 15:20:22;;;;;;;5.35;1.70;;;;;;;11.65;45.74;103125.03;5226461;28;20077;-82
2022/03/17 15:22:53;;;;;;;7.25;2.88;;;;;;;11.75;49.58;103130.81;5224794;28;20034;-83
2022/03/17 15:25:24;;;;;;;4.20;1.80;;;;;;;11.90;49.53;103129.53;5222285;28;20373;-83
2022/03/17 15:30:48;;;;;;;9.48;5.13;;;;;;;11.91;48.75;103123.75;5218307;28;20041;-82
2022/03/17 15:33:19;;;;;;;4.72;2.10;;;;;;;12.02;48.01;103138.72;5203956;28;20373;-80
2022/03/17 15:35:53;;;;;;;4.40;2.10;;;;;;;12.01;47.80;103130.59;5219792;28;20045;-82
2022/03/17 15:38:24;;;;;;;5.07;2.58;;;;;;;12.05;47.81;103132.66;5217943;28;20034;-83
2022/03/17 15:40:57;;;;;;;5.30;1.95;;;;;;;12.09;48.63;103141.34;5221652;28;20473;-82
2022/03/17 15:43:28;;;;;;;5.15;2.00;;;;;;;11.95;45.92;103143.56;5220541;28;20029;-82
2022/03/17 15:45:59;;;;;;;5.95;2.20;;;;;;;11.86;44.98;103140.31;5211855;28;20038;-79
2022/03/17 15:48:30;;;;;;;5.60;1.95;;;;;;;11.78;44.50;103143.41;5220246;28;20104;-80
2022/03/17 15:51:02;;;;;;;4.45;1.83;;;;;;;11.90;46.46;103147.06;5205293;28;20026;-79
2022/03/17 15:53:33;;;;;;;2.72;1.50;;;;;;;11.86;45.29;103153.31;5219826;28;20021;-79
2022/03/17 15:56:05;;;;;;;15.40;11.55;;;;;;;12.04;45.68;103155.13;5226418;28;20026;-78
2022/03/17 15:58:37;;;;;;;6.65;2.13;;;;;;;12.14;48.85;103159.03;5219070;28;20519;-79
2022/03/17 16:01:08;;;;;;;4.15;1.75;;;;;;;12.07;49.08;103161.09;5219497;28;20069;-79
2022/03/17 16:03:43;;;;;;;6.15;2.75;;;;;;;11.89;46.07;103162.06;5209591;28;20064;-79
2022/03/17 16:06:15;;;;;;;5.80;1.80;;;;;;;12.00;47.75;103167.84;5218506;28;20477;-77
2022/03/17 16:08:46;;;;;;;7.53;2.35;;;;;;;12.00;46.75;103163.13;5216897;28;20046;-76
2022/03/17 16:17:00;;;;;;;5.80;1.80;;;;;;;12.02;48.31;103177.66;5220767;28;20053;-78
2022/03/17 16:19:32;;;;;;;32.70;26.13;;;;;;;11.91;47.37;103184.03;5222000;28;20026;-78
2022/03/17 16:22:04;;;;;;;28.20;22.38;;;;;;;11.99;46.84;103178.13;5225056;28;20529;-78
2022/03/17 16:24:35;;;;;;;6.35;2.80;;;;;;;12.12;48.10;103179.81;5220142;28;20046;-77
2022/03/17 16:27:09;;;;;;;7.00;2.80;;;;;;;12.20;46.65;103184.16;5227727;28;20025;-74
2022/03/17 16:29:41;;;;;;;5.78;2.15;;;;;;;12.07;45.42;103185.28;5237775;28;20047;-74
2022/03/17 16:32:14;;;;;;;5.65;2.15;;;;;;;12.08;44.77;103193.34;5223724;28;20108;-77
2022/03/17 16:34:45;;;;;;;4.85;1.60;;;;;;;11.97;45.98;103197.00;5224799;28;20018;-78
2022/03/17 16:37:18;;;;;;;5.43;2.15;;;;;;;11.85;45.22;103199.72;5224366;28;20037;-72
2022/03/17 16:39:49;;;;;;;4.30;2.30;;;;;;;12.05;46.88;103199.41;5223797;28;20034;-82
2022/03/17 16:42:21;;;;;;;5.13;2.10;;;;;;;12.06;48.08;103203.88;5214721;28;20109;-78
2022/03/17 16:44:58;;;;;;;5.13;2.50;;;;;;;11.98;45.47;103207.03;5222184;28;20029;-78
2022/03/17 16:47:30;;;;;;;4.75;2.15;;;;;;;11.83;47.24;103209.41;5223771;28;20397;-75
2022/03/17 16:50:02;;;;;;;7.28;1.50;;;;;;;11.83;45.67;103217.75;5224498;28;20018;-74
2022/03/17 16:52:34;;;;;;;6.60;1.73;;;;;;;11.79;45.22;103222.94;5208206;28;20037;-74
2022/03/17 16:55:06;;;;;;;6.40;2.00;;;;;;;11.75;45.79;103228.13;5218729;28;20034;-74
2022/03/17 16:57:37;;;;;;;5.65;2.65;;;;;;;11.86;49.42;103233.94;5222019;28;20049;-73
2022/03/17 17:00:14;;;;;;;4.47;1.30;;;;;;;11.66;43.47;103240.69;5208516;28;20026;-83
2022/03/17 17:02:45;;;;;;;3.88;2.08;;;;;;;11.60;43.64;103247.19;5226892;28;20030;-82
2022/03/17 17:05:17;;;;;;;2.65;1.10;;;;;;;11.58;42.91;103254.94;5225655;28;20022;-81
2022/03/17 17:07:51;;;;;;;4.75;1.98;;;;;;;11.56;42.93;103250.72;5223136;28;20041;-80
2022/03/17 17:10:24;;;;;;;6.15;1.50;;;;;;;11.52;43.00;103267.00;5224027;28;20117;-76
2022/03/17 17:12:56;;;;;;;3.92;1.80;;;;;;;11.34;43.44;103267.06;5222511;28;20030;-77
2022/03/17 17:15:27;;;;;;;6.68;2.92;;;;;;;11.47;43.66;103269.63;5220760;28;20458;-82
2022/03/17 17:18:01;;;;;;;6.47;2.78;;;;;;;11.42;44.59;103270.34;5213435;28;20071;-82
2022/03/17 17:20:32;;;;;;;5.57;2.03;;;;;;;11.35;44.49;103282.63;5244546;28;20071;-82
